sensor_id;sensor_type;location;lat;lon;timestamp;pressure;altitude;pressure_sealevel;temperature
12430;BMP280;6279;42.192;24.326;2022-10-10T00:00:42;99803.13;;;13.15
12430;BMP280;6279;42.192;24.326;2022-10-10T00:03:08;99807.19;;;13.09
12430;BMP280;6279;42.192;24.326;2022-10-10T00:05:36;99805.22;;;12.80
12430;BMP280;6279;42.192;24.326;2022-10-10T00:08:03;99819.53;;;12.68
12430;BMP280;6279;42.192;24.326;2022-10-10T00:10:29;99813.22;;;12.71
12430;BMP280;6279;42.192;24.326;2022-10-10T00:12:54;99820.41;;;12.76
12430;BMP280;6279;42.192;24.326;2022-10-10T00:15:20;99820.56;;;12.75
12430;BMP280;6279;42.192;24.326;2022-10-10T00:17:45;99825.06;;;12.57
12430;BMP280;6279;42.192;24.326;2022-10-10T00:20:13;99820.94;;;12.47
12430;BMP280;6279;42.192;24.326;2022-10-10T00:22:39;99816.22;;;12.43
12430;BMP280;6279;42.192;24.326;2022-10-10T00:25:06;99815.75;;;12.55
12430;BMP280;6279;42.192;24.326;2022-10-10T00:27:33;99808.25;;;12.60
12430;BMP280;6279;42.192;24.326;2022-10-10T00:29:59;99812.84;;;12.66
12430;BMP280;6279;42.192;24.326;2022-10-10T00:32:25;99812.41;;;12.70
12430;BMP280;6279;42.192;24.326;2022-10-10T00:34:51;99813.53;;;12.75
12430;BMP280;6279;42.192;24.326;2022-10-10T00:37:17;99804.72;;;12.76
12430;BMP280;6279;42.192;24.326;2022-10-10T00:39:42;99808.31;;;12.75
12430;BMP280;6279;42.192;24.326;2022-10-10T00:42:12;99803.75;;;12.77
12430;BMP280;6279;42.192;24.326;2022-10-10T00:44:42;99801.31;;;12.76
12430;BMP280;6279;42.192;24.326;2022-10-10T00:47:08;99803.75;;;12.70
12430;BMP280;6279;42.192;24.326;2022-10-10T00:49:38;99808.66;;;12.72
12430;BMP280;6279;42.192;24.326;2022-10-10T00:52:04;99816.47;;;12.72
12430;BMP280;6279;42.192;24.326;2022-10-10T00:54:32;99816.31;;;12.74
12430;BMP280;6279;42.192;24.326;2022-10-10T00:57:00;99800.66;;;12.74
12430;BMP280;6279;42.192;24.326;2022-10-10T00:59:30;99802.28;;;12.75
12430;BMP280;6279;42.192;24.326;2022-10-10T01:01:56;99802.78;;;12.78
12430;BMP280;6279;42.192;24.326;2022-10-10T01:04:42;99802.78;;;12.78
12430;BMP280;6279;42.192;24.326;2022-10-10T01:07:11;99808.66;;;12.80
12430;BMP280;6279;42.192;24.326;2022-10-10T01:09:38;99809.28;;;12.82
12430;BMP280;6279;42.192;24.326;2022-10-10T01:17:35;99821.97;;;12.62
12430;BMP280;6279;42.192;24.326;2022-10-10T01:25:28;99823.53;;;12.39
12430;BMP280;6279;42.192;24.326;2022-10-10T01:28:06;99822.91;;;12.45
12430;BMP280;6279;42.192;24.326;2022-10-10T01:30:35;99825.28;;;12.31
12430;BMP280;6279;42.192;24.326;2022-10-10T01:43:23;99837.50;;;12.23
12430;BMP280;6279;42.192;24.326;2022-10-10T01:45:51;99841.91;;;12.22
12430;BMP280;6279;42.192;24.326;2022-10-10T01:48:20;99845.81;;;12.18
12430;BMP280;6279;42.192;24.326;2022-10-10T01:59:09;99831.13;;;12.17
12430;BMP280;6279;42.192;24.326;2022-10-10T02:04:29;99834.13;;;11.97
12430;BMP280;6279;42.192;24.326;2022-10-10T02:07:01;99841.59;;;11.92
12430;BMP280;6279;42.192;24.326;2022-10-10T02:09:33;99839.03;;;12.00
12430;BMP280;6279;42.192;24.326;2022-10-10T02:12:00;99839.88;;;12.01
12430;BMP280;6279;42.192;24.326;2022-10-10T02:14:32;99840.78;;;11.92
12430;BMP280;6279;42.192;24.326;2022-10-10T02:16:59;99841.88;;;11.82
12430;BMP280;6279;42.192;24.326;2022-10-10T02:19:27;99846.00;;;11.92
12430;BMP280;6279;42.192;24.326;2022-10-10T02:21:54;99846.22;;;11.98
12430;BMP280;6279;42.192;24.326;2022-10-10T02:24:21;99849.09;;;11.95
12430;BMP280;6279;42.192;24.326;2022-10-10T02:26:58;99859.59;;;12.03
12430;BMP280;6279;42.192;24.326;2022-10-10T02:29:26;99858.28;;;12.07
12430;BMP280;6279;42.192;24.326;2022-10-10T02:34:27;99864.81;;;12.03
12430;BMP280;6279;42.192;24.326;2022-10-10T02:36:58;99866.44;;;12.04
12430;BMP280;6279;42.192;24.326;2022-10-10T02:39:28;99872.41;;;11.97
12430;BMP280;6279;42.192;24.326;2022-10-10T02:41:54;99873.84;;;11.91
12430;BMP280;6279;42.192;24.326;2022-10-10T02:44:21;99874.16;;;11.88
12430;BMP280;6279;42.192;24.326;2022-10-10T02:46:47;99875.44;;;11.84
12430;BMP280;6279;42.192;24.326;2022-10-10T02:49:12;99875.63;;;11.83
12430;BMP280;6279;42.192;24.326;2022-10-10T02:51:38;99869.88;;;11.80
12430;BMP280;6279;42.192;24.326;2022-10-10T02:54:04;99883.28;;;11.84
12430;BMP280;6279;42.192;24.326;2022-10-10T02:56:30;99886.53;;;11.86
12430;BMP280;6279;42.192;24.326;2022-10-10T02:58:55;99878.41;;;11.89
12430;BMP280;6279;42.192;24.326;2022-10-10T03:01:21;99884.13;;;11.93
12430;BMP280;6279;42.192;24.326;2022-10-10T03:03:47;99886.56;;;11.94
12430;BMP280;6279;42.192;24.326;2022-10-10T03:06:12;99883.00;;;11.95
12430;BMP280;6279;42.192;24.326;2022-10-10T03:08:38;99881.69;;;11.91
12430;BMP280;6279;42.192;24.326;2022-10-10T03:11:04;99888.09;;;11.80
12430;BMP280;6279;42.192;24.326;2022-10-10T03:13:30;99894.09;;;11.72
12430;BMP280;6279;42.192;24.326;2022-10-10T03:15:55;99892.81;;;11.76
12430;BMP280;6279;42.192;24.326;2022-10-10T03:18:21;99900.13;;;11.73
12430;BMP280;6279;42.192;24.326;2022-10-10T03:20:51;99907.13;;;11.72
12430;BMP280;6279;42.192;24.326;2022-10-10T03:23:17;99909.06;;;11.70
12430;BMP280;6279;42.192;24.326;2022-10-10T03:25:42;99905.81;;;11.68
12430;BMP280;6279;42.192;24.326;2022-10-10T03:28:09;99909.84;;;11.63
12430;BMP280;6279;42.192;24.326;2022-10-10T03:30:35;99907.50;;;11.60
12430;BMP280;6279;42.192;24.326;2022-10-10T03:33:00;99906.50;;;11.53
12430;BMP280;6279;42.192;24.326;2022-10-10T03:35:26;99906.81;;;11.50
12430;BMP280;6279;42.192;24.326;2022-10-10T03:37:51;99904.56;;;11.55
12430;BMP280;6279;42.192;24.326;2022-10-10T03:40:17;99905.22;;;11.57
12430;BMP280;6279;42.192;24.326;2022-10-10T03:42:42;99905.38;;;11.56
12430;BMP280;6279;42.192;24.326;2022-10-10T03:45:08;99902.63;;;11.57
12430;BMP280;6279;42.192;24.326;2022-10-10T03:47:33;99907.81;;;11.57
12430;BMP280;6279;42.192;24.326;2022-10-10T03:49:58;99907.47;;;11.52
12430;BMP280;6279;42.192;24.326;2022-10-10T03:52:24;99910.22;;;11.51
12430;BMP280;6279;42.192;24.326;2022-10-10T03:54:49;99906.97;;;11.49
12430;BMP280;6279;42.192;24.326;2022-10-10T03:57:15;99912.03;;;11.50
12430;BMP280;6279;42.192;24.326;2022-10-10T03:59:40;99906.81;;;11.50
12430;BMP280;6279;42.192;24.326;2022-10-10T04:02:05;99908.13;;;11.54
12430;BMP280;6279;42.192;24.326;2022-10-10T04:04:31;99906.19;;;11.56
12430;BMP280;6279;42.192;24.326;2022-10-10T04:06:56;99905.88;;;11.59
12430;BMP280;6279;42.192;24.326;2022-10-10T04:09:22;99909.47;;;11.58
12430;BMP280;6279;42.192;24.326;2022-10-10T04:11:47;99909.16;;;11.61
12430;BMP280;6279;42.192;24.326;2022-10-10T04:14:13;99917.66;;;11.63
12430;BMP280;6279;42.192;24.326;2022-10-10T04:16:38;99919.97;;;11.66
12430;BMP280;6279;42.192;24.326;2022-10-10T04:19:03;99928.91;;;11.63
12430;BMP280;6279;42.192;24.326;2022-10-10T04:21:29;99928.66;;;11.57
12430;BMP280;6279;42.192;24.326;2022-10-10T04:23:54;99935.09;;;11.45
12430;BMP280;6279;42.192;24.326;2022-10-10T04:26:20;99929.19;;;11.43
12430;BMP280;6279;42.192;24.326;2022-10-10T04:28:45;99936.28;;;11.34
12430;BMP280;6279;42.192;24.326;2022-10-10T04:31:10;99931.06;;;11.17
12430;BMP280;6279;42.192;24.326;2022-10-10T04:33:36;99937.69;;;11.28
12430;BMP280;6279;42.192;24.326;2022-10-10T04:36:01;99928.66;;;11.23
12430;BMP280;6279;42.192;24.326;2022-10-10T04:38:27;99936.00;;;11.37
12430;BMP280;6279;42.192;24.326;2022-10-10T04:40:53;99923.56;;;11.48
12430;BMP280;6279;42.192;24.326;2022-10-10T04:43:19;99935.50;;;11.58
12430;BMP280;6279;42.192;24.326;2022-10-10T04:45:44;99934.94;;;11.64
12430;BMP280;6279;42.192;24.326;2022-10-10T04:48:10;99930.81;;;11.61
12430;BMP280;6279;42.192;24.326;2022-10-10T04:50:35;99930.81;;;11.61
12430;BMP280;6279;42.192;24.326;2022-10-10T04:53:01;99930.69;;;11.63
12430;BMP280;6279;42.192;24.326;2022-10-10T04:55:26;99937.69;;;11.62
12430;BMP280;6279;42.192;24.326;2022-10-10T04:57:52;99937.44;;;11.73
12430;BMP280;6279;42.192;24.326;2022-10-10T05:00:18;99941.28;;;11.86
12430;BMP280;6279;42.192;24.326;2022-10-10T05:02:43;99943.84;;;12.04
12430;BMP280;6279;42.192;24.326;2022-10-10T05:05:09;99946.69;;;12.18
12430;BMP280;6279;42.192;24.326;2022-10-10T05:07:34;99941.69;;;12.32
12430;BMP280;6279;42.192;24.326;2022-10-10T05:10:02;99937.03;;;12.43
12430;BMP280;6279;42.192;24.326;2022-10-10T05:12:28;99942.00;;;12.54
12430;BMP280;6279;42.192;24.326;2022-10-10T05:14:53;99933.63;;;12.75
12430;BMP280;6279;42.192;24.326;2022-10-10T05:17:19;99929.44;;;12.98
12430;BMP280;6279;42.192;24.326;2022-10-10T05:19:44;99944.78;;;13.01
12430;BMP280;6279;42.192;24.326;2022-10-10T05:22:10;99944.66;;;13.10
12430;BMP280;6279;42.192;24.326;2022-10-10T05:24:36;99963.78;;;13.26
12430;BMP280;6279;42.192;24.326;2022-10-10T05:27:01;99966.56;;;13.33
12430;BMP280;6279;42.192;24.326;2022-10-10T05:29:26;99961.84;;;13.44
12430;BMP280;6279;42.192;24.326;2022-10-10T05:31:52;99961.50;;;13.70
12430;BMP280;6279;42.192;24.326;2022-10-10T05:34:17;99961.19;;;13.73
12430;BMP280;6279;42.192;24.326;2022-10-10T05:36:43;99968.72;;;14.00
12430;BMP280;6279;42.192;24.326;2022-10-10T05:39:08;99957.53;;;14.37
12430;BMP280;6279;42.192;24.326;2022-10-10T05:41:34;99958.66;;;14.80
12430;BMP280;6279;42.192;24.326;2022-10-10T05:43:59;99960.25;;;15.26
12430;BMP280;6279;42.192;24.326;2022-10-10T05:46:25;99966.88;;;15.80
12430;BMP280;6279;42.192;24.326;2022-10-10T05:48:51;99965.09;;;16.17
12430;BMP280;6279;42.192;24.326;2022-10-10T05:51:17;99952.78;;;16.60
12430;BMP280;6279;42.192;24.326;2022-10-10T05:53:43;99958.28;;;17.08
12430;BMP280;6279;42.192;24.326;2022-10-10T05:56:08;99959.50;;;17.67
12430;BMP280;6279;42.192;24.326;2022-10-10T05:58:35;99957.00;;;17.79
12430;BMP280;6279;42.192;24.326;2022-10-10T06:01:03;99966.28;;;18.23
12430;BMP280;6279;42.192;24.326;2022-10-10T06:03:29;99967.25;;;18.43
12430;BMP280;6279;42.192;24.326;2022-10-10T06:05:55;99966.56;;;18.61
12430;BMP280;6279;42.192;24.326;2022-10-10T06:08:20;99972.44;;;18.96
12430;BMP280;6279;42.192;24.326;2022-10-10T06:10:48;99974.19;;;19.35
12430;BMP280;6279;42.192;24.326;2022-10-10T06:13:16;99981.81;;;19.77
12430;BMP280;6279;42.192;24.326;2022-10-10T06:15:42;99976.75;;;19.94
12430;BMP280;6279;42.192;24.326;2022-10-10T06:18:08;99988.09;;;19.76
12430;BMP280;6279;42.192;24.326;2022-10-10T06:20:37;99978.78;;;20.05
12430;BMP280;6279;42.192;24.326;2022-10-10T06:23:04;99977.91;;;20.68
12430;BMP280;6279;42.192;24.326;2022-10-10T06:25:31;99982.25;;;21.06
12430;BMP280;6279;42.192;24.326;2022-10-10T06:27:57;99979.78;;;21.23
12430;BMP280;6279;42.192;24.326;2022-10-10T06:30:22;99983.06;;;21.55
12430;BMP280;6279;42.192;24.326;2022-10-10T06:32:48;99991.75;;;21.62
12430;BMP280;6279;42.192;24.326;2022-10-10T06:35:13;99993.69;;;21.79
12430;BMP280;6279;42.192;24.326;2022-10-10T06:37:38;100000.22;;;21.83
12430;BMP280;6279;42.192;24.326;2022-10-10T06:40:04;100004.19;;;21.98
12430;BMP280;6279;42.192;24.326;2022-10-10T06:42:30;99986.28;;;22.84
12430;BMP280;6279;42.192;24.326;2022-10-10T06:44:55;99985.53;;;23.12
12430;BMP280;6279;42.192;24.326;2022-10-10T06:47:20;99992.97;;;23.21
12430;BMP280;6279;42.192;24.326;2022-10-10T06:49:46;99994.75;;;23.27
12430;BMP280;6279;42.192;24.326;2022-10-10T06:52:11;99988.66;;;23.55
12430;BMP280;6279;42.192;24.326;2022-10-10T06:54:37;99995.22;;;24.33
12430;BMP280;6279;42.192;24.326;2022-10-10T06:57:02;99995.94;;;24.51
12430;BMP280;6279;42.192;24.326;2022-10-10T06:59:28;99991.78;;;25.28
12430;BMP280;6279;42.192;24.326;2022-10-10T07:01:53;99998.81;;;25.88
12430;BMP280;6279;42.192;24.326;2022-10-10T07:04:18;99993.53;;;26.53
12430;BMP280;6279;42.192;24.326;2022-10-10T07:06:44;99996.38;;;26.46
12430;BMP280;6279;42.192;24.326;2022-10-10T07:09:09;100011.59;;;26.62
12430;BMP280;6279;42.192;24.326;2022-10-10T07:11:34;100004.59;;;26.77
12430;BMP280;6279;42.192;24.326;2022-10-10T07:14:00;100003.06;;;27.65
12430;BMP280;6279;42.192;24.326;2022-10-10T07:16:26;100007.56;;;28.38
12430;BMP280;6279;42.192;24.326;2022-10-10T07:18:51;100004.34;;;28.76
12430;BMP280;6279;42.192;24.326;2022-10-10T07:21:16;100008.09;;;28.09
12430;BMP280;6279;42.192;24.326;2022-10-10T07:23:42;100008.63;;;27.59
12430;BMP280;6279;42.192;24.326;2022-10-10T07:26:11;100011.34;;;28.16
12430;BMP280;6279;42.192;24.326;2022-10-10T07:28:37;100007.34;;;27.87
12430;BMP280;6279;42.192;24.326;2022-10-10T07:31:05;100006.38;;;27.72
12430;BMP280;6279;42.192;24.326;2022-10-10T07:33:42;99997.69;;;27.86
12430;BMP280;6279;42.192;24.326;2022-10-10T07:36:08;100007.59;;;28.42
12430;BMP280;6279;42.192;24.326;2022-10-10T07:38:35;99998.50;;;28.79
12430;BMP280;6279;42.192;24.326;2022-10-10T07:41:10;100002.88;;;28.95
12430;BMP280;6279;42.192;24.326;2022-10-10T07:43:36;99996.81;;;28.73
12430;BMP280;6279;42.192;24.326;2022-10-10T07:46:03;99997.47;;;28.18
12430;BMP280;6279;42.192;24.326;2022-10-10T07:48:29;99993.28;;;29.69
12430;BMP280;6279;42.192;24.326;2022-10-10T07:50:57;100000.59;;;30.17
12430;BMP280;6279;42.192;24.326;2022-10-10T07:53:22;100002.47;;;30.21
12430;BMP280;6279;42.192;24.326;2022-10-10T07:55:48;100002.69;;;29.81
12430;BMP280;6279;42.192;24.326;2022-10-10T07:58:14;99998.53;;;29.39
12430;BMP280;6279;42.192;24.326;2022-10-10T08:00:39;99990.13;;;30.50
12430;BMP280;6279;42.192;24.326;2022-10-10T08:03:10;99997.06;;;31.99
12430;BMP280;6279;42.192;24.326;2022-10-10T08:05:40;100001.22;;;32.58
12430;BMP280;6279;42.192;24.326;2022-10-10T08:08:07;100001.78;;;33.52
12430;BMP280;6279;42.192;24.326;2022-10-10T08:10:33;99995.38;;;33.84
12430;BMP280;6279;42.192;24.326;2022-10-10T08:12:58;99999.78;;;34.16
12430;BMP280;6279;42.192;24.326;2022-10-10T08:15:24;99994.22;;;34.08
12430;BMP280;6279;42.192;24.326;2022-10-10T08:17:49;99998.13;;;33.61
12430;BMP280;6279;42.192;24.326;2022-10-10T08:20:14;99986.84;;;34.76
12430;BMP280;6279;42.192;24.326;2022-10-10T08:22:40;99995.44;;;33.79
12430;BMP280;6279;42.192;24.326;2022-10-10T08:25:09;99987.34;;;33.97
12430;BMP280;6279;42.192;24.326;2022-10-10T08:27:34;99981.59;;;34.66
12430;BMP280;6279;42.192;24.326;2022-10-10T08:29:59;99973.47;;;34.97
12430;BMP280;6279;42.192;24.326;2022-10-10T08:32:25;99979.00;;;33.62
12430;BMP280;6279;42.192;24.326;2022-10-10T08:34:50;99973.19;;;32.54
12430;BMP280;6279;42.192;24.326;2022-10-10T08:37:16;99984.03;;;31.31
12430;BMP280;6279;42.192;24.326;2022-10-10T08:39:41;99988.25;;;30.06
12430;BMP280;6279;42.192;24.326;2022-10-10T08:42:14;99972.66;;;30.57
12430;BMP280;6279;42.192;24.326;2022-10-10T08:44:55;99972.72;;;32.47
12430;BMP280;6279;42.192;24.326;2022-10-10T08:47:36;99981.28;;;32.26
12430;BMP280;6279;42.192;24.326;2022-10-10T08:50:18;99976.41;;;31.48
12430;BMP280;6279;42.192;24.326;2022-10-10T08:55:22;99981.56;;;30.04
12430;BMP280;6279;42.192;24.326;2022-10-10T08:57:55;99973.06;;;27.58
12430;BMP280;6279;42.192;24.326;2022-10-10T09:00:23;99967.78;;;28.20
12430;BMP280;6279;42.192;24.326;2022-10-10T09:02:55;99972.41;;;28.65
12430;BMP280;6279;42.192;24.326;2022-10-10T09:05:44;99966.09;;;28.09
12430;BMP280;6279;42.192;24.326;2022-10-10T09:13:45;99970.81;;;30.28
12430;BMP280;6279;42.192;24.326;2022-10-10T09:21:32;99973.94;;;29.52
12430;BMP280;6279;42.192;24.326;2022-10-10T09:24:13;99962.44;;;29.86
12430;BMP280;6279;42.192;24.326;2022-10-10T09:26:45;99968.59;;;29.72
12430;BMP280;6279;42.192;24.326;2022-10-10T09:31:54;99961.94;;;30.18
12430;BMP280;6279;42.192;24.326;2022-10-10T09:36:49;99957.63;;;30.66
12430;BMP280;6279;42.192;24.326;2022-10-10T09:42:00;99953.88;;;30.52
12430;BMP280;6279;42.192;24.326;2022-10-10T09:44:27;99954.97;;;30.17
12430;BMP280;6279;42.192;24.326;2022-10-10T09:46:53;99955.47;;;30.48
12430;BMP280;6279;42.192;24.326;2022-10-10T09:49:20;99953.88;;;30.52
12430;BMP280;6279;42.192;24.326;2022-10-10T09:51:47;99962.25;;;31.32
12430;BMP280;6279;42.192;24.326;2022-10-10T09:54:14;99971.22;;;31.66
12430;BMP280;6279;42.192;24.326;2022-10-10T09:56:52;99961.41;;;30.40
12430;BMP280;6279;42.192;24.326;2022-10-10T09:59:45;99965.63;;;28.48
12430;BMP280;6279;42.192;24.326;2022-10-10T10:02:22;99950.78;;;28.76
12430;BMP280;6279;42.192;24.326;2022-10-10T10:04:48;99945.13;;;27.96
12430;BMP280;6279;42.192;24.326;2022-10-10T10:07:29;99945.78;;;27.82
12430;BMP280;6279;42.192;24.326;2022-10-10T10:09:58;99943.31;;;28.38
12430;BMP280;6279;42.192;24.326;2022-10-10T10:12:28;99938.88;;;28.53
12430;BMP280;6279;42.192;24.326;2022-10-10T10:15:00;99942.06;;;27.15
12430;BMP280;6279;42.192;24.326;2022-10-10T10:17:26;99944.50;;;26.96
12430;BMP280;6279;42.192;24.326;2022-10-10T10:19:52;99947.06;;;27.07
12430;BMP280;6279;42.192;24.326;2022-10-10T10:22:37;99937.75;;;26.88
12430;BMP280;6279;42.192;24.326;2022-10-10T10:25:37;99934.00;;;27.31
12430;BMP280;6279;42.192;24.326;2022-10-10T10:28:20;99929.59;;;26.41
12430;BMP280;6279;42.192;24.326;2022-10-10T10:30:46;99944.56;;;25.51
12430;BMP280;6279;42.192;24.326;2022-10-10T10:35:49;99925.69;;;25.25
12430;BMP280;6279;42.192;24.326;2022-10-10T10:38:45;99928.19;;;25.42
12430;BMP280;6279;42.192;24.326;2022-10-10T10:41:37;99927.66;;;24.79
12430;BMP280;6279;42.192;24.326;2022-10-10T10:50:26;99911.16;;;24.55
12430;BMP280;6279;42.192;24.326;2022-10-10T10:58:43;99903.97;;;24.55
12430;BMP280;6279;42.192;24.326;2022-10-10T11:16:51;99877.00;;;24.74
12430;BMP280;6279;42.192;24.326;2022-10-10T11:19:31;99877.84;;;24.52
12430;BMP280;6279;42.192;24.326;2022-10-10T11:22:13;99874.16;;;24.31
12430;BMP280;6279;42.192;24.326;2022-10-10T11:25:02;99876.00;;;24.53
12430;BMP280;6279;42.192;24.326;2022-10-10T11:27:43;99879.69;;;25.02
12430;BMP280;6279;42.192;24.326;2022-10-10T11:30:23;99874.50;;;25.23
12430;BMP280;6279;42.192;24.326;2022-10-10T11:33:03;99875.28;;;25.07
12430;BMP280;6279;42.192;24.326;2022-10-10T11:35:34;99873.22;;;24.98
12430;BMP280;6279;42.192;24.326;2022-10-10T11:38:16;99877.19;;;24.34
12430;BMP280;6279;42.192;24.326;2022-10-10T11:40:47;99870.00;;;24.35
12430;BMP280;6279;42.192;24.326;2022-10-10T11:46:40;99853.16;;;24.79
12430;BMP280;6279;42.192;24.326;2022-10-10T11:52:00;99847.66;;;24.47
12430;BMP280;6279;42.192;24.326;2022-10-10T11:54:33;99845.03;;;24.02
12430;BMP280;6279;42.192;24.326;2022-10-10T11:57:07;99846.19;;;23.95
12430;BMP280;6279;42.192;24.326;2022-10-10T11:59:40;99847.84;;;24.07
12430;BMP280;6279;42.192;24.326;2022-10-10T12:02:38;99844.91;;;23.74
12430;BMP280;6279;42.192;24.326;2022-10-10T12:05:05;99836.25;;;23.79
12430;BMP280;6279;42.192;24.326;2022-10-10T12:07:37;99836.88;;;24.15
12430;BMP280;6279;42.192;24.326;2022-10-10T12:10:13;99837.06;;;24.24
12430;BMP280;6279;42.192;24.326;2022-10-10T12:12:43;99827.25;;;24.25
12430;BMP280;6279;42.192;24.326;2022-10-10T12:15:33;99830.09;;;24.46
12430;BMP280;6279;42.192;24.326;2022-10-10T12:18:02;99821.91;;;24.86
12430;BMP280;6279;42.192;24.326;2022-10-10T12:20:34;99817.66;;;24.74
12430;BMP280;6279;42.192;24.326;2022-10-10T12:25:40;99826.84;;;24.94
12430;BMP280;6279;42.192;24.326;2022-10-10T12:35:50;99830.13;;;24.23
12430;BMP280;6279;42.192;24.326;2022-10-10T12:38:20;99839.84;;;23.84
12430;BMP280;6279;42.192;24.326;2022-10-10T12:46:15;99824.91;;;23.95
12430;BMP280;6279;42.192;24.326;2022-10-10T12:48:42;99840.41;;;23.64
12430;BMP280;6279;42.192;24.326;2022-10-10T12:51:18;99818.38;;;23.34
12430;BMP280;6279;42.192;24.326;2022-10-10T12:53:49;99815.75;;;23.06
12430;BMP280;6279;42.192;24.326;2022-10-10T12:56:15;99812.44;;;23.10
12430;BMP280;6279;42.192;24.326;2022-10-10T12:58:41;99812.84;;;22.96
12430;BMP280;6279;42.192;24.326;2022-10-10T13:01:21;99818.91;;;23.14
12430;BMP280;6279;42.192;24.326;2022-10-10T13:03:49;99811.06;;;23.48
12430;BMP280;6279;42.192;24.326;2022-10-10T13:06:36;99798.47;;;23.88
12430;BMP280;6279;42.192;24.326;2022-10-10T13:09:08;99798.72;;;23.98
12430;BMP280;6279;42.192;24.326;2022-10-10T13:11:55;99803.31;;;24.02
12430;BMP280;6279;42.192;24.326;2022-10-10T13:14:21;99800.09;;;24.12
12430;BMP280;6279;42.192;24.326;2022-10-10T13:16:50;99805.28;;;23.96
12430;BMP280;6279;42.192;24.326;2022-10-10T13:19:24;99799.84;;;23.46
12430;BMP280;6279;42.192;24.326;2022-10-10T13:21:52;99789.47;;;23.44
12430;BMP280;6279;42.192;24.326;2022-10-10T13:24:23;99780.09;;;23.53
12430;BMP280;6279;42.192;24.326;2022-10-10T13:26:56;99781.16;;;23.63
12430;BMP280;6279;42.192;24.326;2022-10-10T13:29:31;99791.78;;;23.74
12430;BMP280;6279;42.192;24.326;2022-10-10T13:32:06;99787.03;;;23.54
12430;BMP280;6279;42.192;24.326;2022-10-10T13:34:37;99799.94;;;23.39
12430;BMP280;6279;42.192;24.326;2022-10-10T13:37:04;99796.47;;;23.39
12430;BMP280;6279;42.192;24.326;2022-10-10T13:39:32;99785.69;;;23.23
12430;BMP280;6279;42.192;24.326;2022-10-10T13:41:59;99791.72;;;23.30
12430;BMP280;6279;42.192;24.326;2022-10-10T13:44:32;99789.91;;;23.41
12430;BMP280;6279;42.192;24.326;2022-10-10T13:46:57;99779.53;;;23.51
12430;BMP280;6279;42.192;24.326;2022-10-10T13:49:25;99776.06;;;23.51
12430;BMP280;6279;42.192;24.326;2022-10-10T13:52:23;99792.06;;;23.33
12430;BMP280;6279;42.192;24.326;2022-10-10T13:54:49;99796.53;;;23.10
12430;BMP280;6279;42.192;24.326;2022-10-10T13:57:25;99779.81;;;22.81
12430;BMP280;6279;42.192;24.326;2022-10-10T14:00:02;99791.34;;;22.75
12430;BMP280;6279;42.192;24.326;2022-10-10T14:02:30;99780.72;;;22.75
12430;BMP280;6279;42.192;24.326;2022-10-10T14:04:57;99779.81;;;22.63
12430;BMP280;6279;42.192;24.326;2022-10-10T14:07:25;99775.19;;;22.59
12430;BMP280;6279;42.192;24.326;2022-10-10T14:10:08;99771.56;;;22.42
12430;BMP280;6279;42.192;24.326;2022-10-10T14:12:41;99773.41;;;22.42
12430;BMP280;6279;42.192;24.326;2022-10-10T14:17:55;99770.84;;;22.64
12430;BMP280;6279;42.192;24.326;2022-10-10T14:20:20;99768.63;;;22.79
12430;BMP280;6279;42.192;24.326;2022-10-10T14:22:46;99764.03;;;22.86
12430;BMP280;6279;42.192;24.326;2022-10-10T14:25:11;99760.47;;;22.91
12430;BMP280;6279;42.192;24.326;2022-10-10T14:27:36;99752.53;;;22.91
12430;BMP280;6279;42.192;24.326;2022-10-10T14:30:02;99751.94;;;22.89
12430;BMP280;6279;42.192;24.326;2022-10-10T14:32:28;99753.88;;;22.83
12430;BMP280;6279;42.192;24.326;2022-10-10T14:34:54;99762.75;;;22.77
12430;BMP280;6279;42.192;24.326;2022-10-10T14:37:25;99762.22;;;22.68
12430;BMP280;6279;42.192;24.326;2022-10-10T14:39:51;99763.44;;;22.55
12430;BMP280;6279;42.192;24.326;2022-10-10T14:42:18;99761.63;;;22.38
12430;BMP280;6279;42.192;24.326;2022-10-10T14:44:44;99757.63;;;22.29
12430;BMP280;6279;42.192;24.326;2022-10-10T14:47:18;99757.78;;;22.16
12430;BMP280;6279;42.192;24.326;2022-10-10T14:49:43;99749.72;;;22.11
12430;BMP280;6279;42.192;24.326;2022-10-10T14:52:09;99757.06;;;22.09
12430;BMP280;6279;42.192;24.326;2022-10-10T14:54:34;99752.09;;;22.01
12430;BMP280;6279;42.192;24.326;2022-10-10T14:57:00;99755.16;;;21.98
12430;BMP280;6279;42.192;24.326;2022-10-10T14:59:25;99757.00;;;21.98
12430;BMP280;6279;42.192;24.326;2022-10-10T15:01:51;99748.88;;;21.93
12430;BMP280;6279;42.192;24.326;2022-10-10T15:04:16;99745.06;;;21.89
12430;BMP280;6279;42.192;24.326;2022-10-10T15:06:42;99745.13;;;21.83
12430;BMP280;6279;42.192;24.326;2022-10-10T15:09:10;99760.81;;;21.84
12430;BMP280;6279;42.192;24.326;2022-10-10T15:11:35;99750.69;;;21.75
12430;BMP280;6279;42.192;24.326;2022-10-10T15:14:01;99753.34;;;21.75
12430;BMP280;6279;42.192;24.326;2022-10-10T15:16:26;99747.91;;;21.70
12430;BMP280;6279;42.192;24.326;2022-10-10T15:18:52;99752.63;;;21.68
12430;BMP280;6279;42.192;24.326;2022-10-10T15:21:17;99749.22;;;21.61
12430;BMP280;6279;42.192;24.326;2022-10-10T15:23:42;99749.88;;;21.57
12430;BMP280;6279;42.192;24.326;2022-10-10T15:26:08;99745.69;;;21.50
12430;BMP280;6279;42.192;24.326;2022-10-10T15:28:33;99747.78;;;21.41
12430;BMP280;6279;42.192;24.326;2022-10-10T15:30:59;99745.63;;;21.32
12430;BMP280;6279;42.192;24.326;2022-10-10T15:33:24;99745.53;;;21.21
12430;BMP280;6279;42.192;24.326;2022-10-10T15:35:57;99745.38;;;21.09
12430;BMP280;6279;42.192;24.326;2022-10-10T15:38:27;99754.41;;;21.02
12430;BMP280;6279;42.192;24.326;2022-10-10T15:41:01;99756.50;;;20.94
12430;BMP280;6279;42.192;24.326;2022-10-10T15:43:27;99750.88;;;20.84
12430;BMP280;6279;42.192;24.326;2022-10-10T15:45:54;99762.31;;;20.78
12430;BMP280;6279;42.192;24.326;2022-10-10T15:48:20;99767.22;;;20.75
12430;BMP280;6279;42.192;24.326;2022-10-10T15:50:46;99765.59;;;20.67
12430;BMP280;6279;42.192;24.326;2022-10-10T15:53:12;99755.31;;;20.60
12430;BMP280;6279;42.192;24.326;2022-10-10T15:55:44;99753.31;;;20.49
12430;BMP280;6279;42.192;24.326;2022-10-10T15:58:11;99756.56;;;20.38
12430;BMP280;6279;42.192;24.326;2022-10-10T16:00:38;99751.16;;;20.27
12430;BMP280;6279;42.192;24.326;2022-10-10T16:03:03;99754.22;;;20.18
12430;BMP280;6279;42.192;24.326;2022-10-10T16:05:29;99755.09;;;20.12
12430;BMP280;6279;42.192;24.326;2022-10-10T16:07:56;99763.25;;;20.04